createdAt,value
2022-08-17T00:02:36.382Z,77.9
2022-08-17T00:08:20.766Z,78.1
2022-08-17T00:13:56.536Z,78.4
2022-08-17T00:19:34.144Z,78.4
2022-08-17T00:25:09.221Z,78.2
2022-08-17T00:30:53.282Z,78.2
2022-08-17T00:36:29.636Z,78.2
2022-08-17T00:42:31.452Z,78.1
2022-08-17T00:48:27.306Z,78.3
2022-08-17T00:54:06.862Z,78.5
2022-08-17T00:59:41.721Z,78.8
2022-08-17T01:05:19.018Z,78.8
2022-08-17T01:11:01.718Z,79
2022-08-17T01:16:37.537Z,79.3
2022-08-17T01:22:12.298Z,79.4
2022-08-17T01:27:47.182Z,79.6
2022-08-17T01:33:21.952Z,79.8
2022-08-17T01:38:58.034Z,80
2022-08-17T01:44:55.202Z,79.9
2022-08-17T01:50:28.151Z,79.9
2022-08-17T01:56:02.862Z,79.8
2022-08-17T02:01:38.030Z,79.8
2022-08-17T02:07:15.900Z,79.8
2022-08-17T02:12:53.072Z,79.8
2022-08-17T02:18:29.397Z,79.9
2022-08-17T02:24:04.502Z,79.9
2022-08-17T02:29:40.367Z,80.1
2022-08-17T02:35:19.696Z,80.1
2022-08-17T02:40:57.134Z,80.1
2022-08-17T02:46:31.889Z,80.2
2022-08-17T02:52:07.509Z,80.1
2022-08-17T02:57:42.328Z,80
2022-08-17T03:03:18.318Z,80
2022-08-17T03:08:53.224Z,80.1
2022-08-17T03:14:28.484Z,80.2
2022-08-17T03:20:03.342Z,80.3
2022-08-17T03:25:38.907Z,80.2
2022-08-17T03:31:13.782Z,80.1
2022-08-17T03:36:48.484Z,79.9
2022-08-17T03:42:45.068Z,79.8
2022-08-17T03:48:18.604Z,79.9
2022-08-17T03:53:53.303Z,79.8
2022-08-17T03:59:28.125Z,79.7
2022-08-17T04:05:03.196Z,79.7
2022-08-17T04:10:45.514Z,79.7
2022-08-17T04:16:20.761Z,79.7
2022-08-17T04:21:55.407Z,79.7
2022-08-17T04:27:31.023Z,79.5
2022-08-17T04:33:07.572Z,79.3
2022-08-17T04:38:42.300Z,79.2
2022-08-17T04:44:38.814Z,79.5
2022-08-17T04:50:12.479Z,79.8
2022-08-17T04:55:47.295Z,80
2022-08-17T05:01:24.791Z,79.9
2022-08-17T05:07:00.645Z,79.9
2022-08-17T05:12:36.703Z,79.9
2022-08-17T05:18:11.701Z,79.9
2022-08-17T05:23:56.345Z,79.9
2022-08-17T05:29:36.073Z,80
2022-08-17T05:35:10.987Z,80.3
2022-08-17T05:40:45.925Z,80.4
2022-08-17T05:46:20.780Z,80.5
2022-08-17T05:51:56.523Z,80.8
2022-08-17T05:57:31.680Z,81
2022-08-17T06:03:08.115Z,81
2022-08-17T06:08:43.359Z,81.1
2022-08-17T06:14:18.136Z,81.1
2022-08-17T06:19:53.909Z,81.4
2022-08-17T06:25:28.937Z,81.3
2022-08-17T06:31:03.878Z,81.3
2022-08-17T06:36:38.726Z,81.4
2022-08-17T06:43:07.299Z,81.6
2022-08-17T06:48:42.623Z,82
2022-08-17T06:54:17.567Z,83.7
2022-08-17T06:59:56.695Z,83.5
2022-08-17T07:05:31.757Z,83.6
2022-08-17T07:11:06.989Z,84.1
2022-08-17T07:16:41.828Z,84.9
2022-08-17T07:22:17.011Z,84.7
2022-08-17T07:27:52.465Z,83.7
2022-08-17T07:33:28.197Z,82.2
2022-08-17T07:39:03.406Z,83.7
2022-08-17T07:45:00.014Z,81.5
2022-08-17T07:50:32.886Z,80.4
2022-08-17T07:56:07.674Z,80.5
2022-08-17T08:01:43.038Z,80.2
2022-08-17T08:07:21.215Z,78.4
2022-08-17T08:12:58.934Z,79.5
2022-08-17T08:18:56.644Z,76.5
2022-08-17T08:24:33.241Z,72.8
2022-08-17T08:30:09.514Z,76.8
2022-08-17T08:35:44.639Z,78.6
2022-08-17T08:41:20.057Z,79.2
2022-08-17T08:46:56.781Z,77.4
2022-08-17T08:52:31.434Z,77.7
2022-08-17T08:58:07.252Z,77.9
2022-08-17T09:04:25.902Z,75.8
2022-08-17T09:10:01.082Z,75.2
2022-08-17T09:15:35.891Z,75.6
2022-08-17T09:21:10.941Z,75
2022-08-17T09:26:47.099Z,74.3
2022-08-17T09:32:21.812Z,73.5
2022-08-17T09:37:57.877Z,73.7
2022-08-17T09:43:54.911Z,72.4
2022-08-17T09:49:28.527Z,73.8
2022-08-17T09:55:03.278Z,73.1
2022-08-17T10:00:38.073Z,74.2
2022-08-17T10:06:13.093Z,74.5
2022-08-17T10:11:50.673Z,72.7
2022-08-17T10:17:25.683Z,73.3
2022-08-17T10:23:00.623Z,73.6
2022-08-17T10:28:35.574Z,73.1
2022-08-17T10:34:10.436Z,71.4
2022-08-17T10:39:53.253Z,71.9
2022-08-17T10:45:29.325Z,72.2
2022-08-17T10:51:04.095Z,71.3
2022-08-17T10:56:38.952Z,70.4
2022-08-17T11:02:14.825Z,71.4
2022-08-17T11:07:49.714Z,71.7
2022-08-17T11:13:24.849Z,70.4
2022-08-17T11:19:00.926Z,70.7
2022-08-17T11:24:35.784Z,70.9
2022-08-17T11:30:11.080Z,70.7
2022-08-17T11:35:52.126Z,71.2
2022-08-17T11:41:27.043Z,71.4
2022-08-17T11:47:02.960Z,71.2
2022-08-17T11:52:38.765Z,71.1
2022-08-17T11:58:13.444Z,69.8
2022-08-17T12:03:56.160Z,70
2022-08-17T12:09:31.293Z,70.8
2022-08-17T12:15:12.525Z,71
2022-08-17T12:20:56.902Z,71
2022-08-17T12:26:32.038Z,70.7
2022-08-17T12:32:06.951Z,70.8
2022-08-17T12:37:44.039Z,70.8
2022-08-17T12:43:40.830Z,69.7
2022-08-17T12:49:13.501Z,68.9
2022-08-17T12:54:48.266Z,68.5
2022-08-17T13:00:23.483Z,68.3
2022-08-17T13:05:58.308Z,68.7
2022-08-17T13:11:33.476Z,69.2
2022-08-17T13:17:13.765Z,70.9
2022-08-17T13:22:48.537Z,72.4
2022-08-17T13:28:36.525Z,72.8
2022-08-17T13:34:20.969Z,72.3
2022-08-17T13:40:03.070Z,72.4
2022-08-17T13:45:42.659Z,71.7
2022-08-17T13:51:26.070Z,71.1
2022-08-17T13:57:00.885Z,70.2
2022-08-17T14:02:35.873Z,69.9
2022-08-17T14:08:10.554Z,70.3
2022-08-17T14:13:45.421Z,69.9
2022-08-17T14:19:21.448Z,70
2022-08-17T14:24:56.430Z,69.5
2022-08-17T14:30:31.226Z,69.3
2022-08-17T14:36:06.067Z,68.7
2022-08-17T14:42:03.032Z,68.8
2022-08-17T14:47:35.974Z,69.4
2022-08-17T14:53:12.023Z,69.9
2022-08-17T14:58:48.011Z,70.1
2022-08-17T15:04:22.874Z,70.4
2022-08-17T15:09:57.706Z,70.9
2022-08-17T15:15:38.446Z,70.9
2022-08-17T15:21:13.206Z,70.8
2022-08-17T15:26:47.780Z,70.3
2022-08-17T15:32:22.624Z,70.6
2022-08-17T15:37:57.611Z,70.8
2022-08-17T15:43:54.590Z,70.7
2022-08-17T15:49:27.235Z,70.8
2022-08-17T15:55:06.580Z,71.8
2022-08-17T16:01:17.089Z,71.8
2022-08-17T16:10:09.013Z,73.1
2022-08-17T16:16:09.457Z,75.6
2022-08-17T16:21:44.218Z,74.9
2022-08-17T16:27:19.683Z,75.6
2022-08-17T16:32:54.537Z,76.4
2022-08-17T16:38:30.273Z,77.9
2022-08-17T16:44:27.172Z,76
2022-08-17T16:50:00.089Z,75.7
2022-08-17T16:55:36.686Z,75.6
2022-08-17T17:01:11.867Z,74.4
2022-08-17T17:06:48.535Z,73
2022-08-17T17:13:04.454Z,73.7
2022-08-17T17:18:40.960Z,74.7
2022-08-17T17:24:15.732Z,75.7
2022-08-17T17:29:51.836Z,76.3
2022-08-17T17:35:27.234Z,76.7
2022-08-17T17:41:03.431Z,77
2022-08-17T17:46:39.110Z,77.3
2022-08-17T17:52:19.744Z,76.5
2022-08-17T17:57:54.949Z,74.9
2022-08-17T18:03:29.777Z,76
2022-08-17T18:09:06.611Z,76.1
2022-08-17T18:14:49.940Z,76.2
2022-08-17T18:20:43.523Z,76.3
2022-08-17T18:26:32.596Z,76.3
2022-08-17T18:32:08.932Z,76.3
2022-08-17T18:37:43.959Z,76.5
2022-08-17T18:43:54.042Z,76.2
2022-08-17T18:49:27.183Z,76.8
2022-08-17T18:55:02.109Z,77
2022-08-17T19:00:37.154Z,77.2
2022-08-17T19:06:11.823Z,77.4
2022-08-17T19:11:46.579Z,78.2
2022-08-17T19:17:21.553Z,79.2
2022-08-17T19:22:56.635Z,79.7
2022-08-17T19:28:31.866Z,80.1
2022-08-17T19:34:07.445Z,80.4
2022-08-17T19:39:42.524Z,80.7
2022-08-17T19:45:19.132Z,80.9
2022-08-17T19:50:54.659Z,81.1
2022-08-17T19:56:29.729Z,81.2
2022-08-17T20:02:05.479Z,81.2
2022-08-17T20:07:42.049Z,81.3
2022-08-17T20:13:17.766Z,81.1
2022-08-17T20:19:12.492Z,80.9
2022-08-17T20:24:48.486Z,80.8
2022-08-17T20:30:23.212Z,80.8
2022-08-17T20:35:59.022Z,80.8
2022-08-17T20:41:33.713Z,80.9
2022-08-17T20:47:08.605Z,81
2022-08-17T20:52:43.756Z,81
2022-08-17T20:58:18.556Z,80.8
2022-08-17T21:03:53.289Z,80.6
2022-08-17T21:09:28.362Z,80.7
2022-08-17T21:15:03.190Z,80.6
2022-08-17T21:20:37.804Z,80.8
2022-08-17T21:26:13.413Z,80.9
2022-08-17T21:31:48.750Z,80.8
2022-08-17T21:37:24.198Z,80.9
2022-08-17T21:43:20.939Z,80.9
2022-08-17T21:48:54.925Z,81
2022-08-17T21:54:29.597Z,80.9
2022-08-17T22:00:05.707Z,80.8
2022-08-17T22:05:41.610Z,80.7
2022-08-17T22:11:16.715Z,80.7
2022-08-17T22:16:51.505Z,80.6
2022-08-17T22:22:27.655Z,80.5
2022-08-17T22:28:02.816Z,80.5
2022-08-17T22:33:37.717Z,80.4
2022-08-17T22:39:13.446Z,80.3
2022-08-17T22:45:10.310Z,80.2
2022-08-17T22:50:42.975Z,80.2
2022-08-17T22:56:19.186Z,80.2
2022-08-17T23:01:56.146Z,80.3
2022-08-17T23:07:30.844Z,80.4
2022-08-17T23:13:05.810Z,80.5
2022-08-17T23:18:40.654Z,80.5
2022-08-17T23:24:15.510Z,80.7
2022-08-17T23:29:51.329Z,80.8
2022-08-17T23:35:41.287Z,81
2022-08-17T23:41:16.196Z,81
2022-08-17T23:46:52.028Z,81
2022-08-17T23:52:26.952Z,81
2022-08-17T23:58:01.641Z,81.1
